Apellis — 3FJT2 — position and weather

sailwx.info

Track history (hours):
 
Tides and Currents Weather Stations Pressure Air Temp Water Temp Dewpoint Dewpoint Depression Visibility Wind Speed Wind Dir Waves Ship Positions

Apellis

Last reported at 2014-Oct-25 04:20 UTC. Time now 2014-Oct-25 23:41 UTC.
Position N 49°53' W 003°10'.

Length 178 m; draft 9.4 m.

Type: Cargo ship. MMSI: 353847000.

Date/timePositionNaut miles runAvg speedWind from/ knotsBaromVisibWave heightAir tempDewpointWater temp
2014-Oct-25 04:20N 49°53' W 003°10'1513.6
2014-Oct-25 03:15N 49°60' W 002°49'1215.1
2014-Oct-25 02:26N 50°03' W 002°31'8612.4
2014-Oct-24 19:28N 50°28' W 000°22'1611.5
2014-Oct-24 18:06N 50°32' E 000°02'1012.5
2014-Oct-24 17:19N 50°35' E 000°16'1013.1
2014-Oct-24 16:33N 50°38' E 000°32'1312.7
2014-Oct-24 15:34N 50°44' E 000°49'1512.0
2014-Oct-24 14:19N 50°53' E 001°07'910.7
2014-Oct-24 13:29N 50°59' E 001°18'9 9.3
2014-Oct-24 12:34N 51°05' E 001°29'9 9.1
2014-Oct-24 11:33N 51°10' E 001°40'1010.5
2014-Oct-24 10:34N 51°18' E 001°51'1312.9
2014-Oct-24 09:33N 51°29' E 002°02'9411.6
2014-Oct-24 01:25N 52°52' E 003°15'35611.8
2014-Oct-22 19:21N 57°38' E 009°27'1011.8
2014-Oct-22 18:32N 57°43' E 009°43'1511.7
2014-Oct-22 17:16N 57°48' E 010°09'812.1
2014-Oct-22 16:33N 57°48' E 010°25'1111.4
2014-Oct-22 15:33N 57°48' E 010°46'1212.4
2014-Oct-22 14:33N 57°42' E 011°06'1212.0
2014-Oct-22 13:33N 57°36' E 011°25'8 8.5
2014-Oct-22 12:33N 57°35' E 011°41'1 1.0
2014-Oct-22 11:33N 57°36' E 011°40'0 0.0
2014-Oct-22 10:24N 57°36' E 011°40'0 0.0
2014-Oct-22 09:33N 57°36' E 011°40'0 0.0
2014-Oct-22 08:30N 57°36' E 011°40'0 0.0
2014-Oct-22 07:30N 57°36' E 011°40'0 0.0
2014-Oct-22 06:30N 57°36' E 011°40'0 0.0
2014-Oct-22 05:33N 57°36' E 011°40'0 0.0
2014-Oct-22 04:33N 57°36' E 011°40'0 0.0
2014-Oct-22 03:33N 57°36' E 011°40'0 0.0
2014-Oct-22 02:33N 57°36' E 011°40'0 0.0
2014-Oct-22 01:33N 57°36' E 011°41'0 0.0
2014-Oct-22 00:30N 57°36' E 011°41'0 0.0
2014-Oct-21 23:33N 57°36' E 011°41'0 0.0
2014-Oct-21 22:33N 57°36' E 011°41'0 0.0
2014-Oct-21 21:33N 57°36' E 011°41'0 0.0
2014-Oct-21 20:33N 57°36' E 011°41'0 0.0
2014-Oct-21 19:33N 57°36' E 011°40'0 0.0
2014-Oct-21 18:33N 57°36' E 011°40'0 0.0
2014-Oct-21 17:33N 57°36' E 011°40'2 2.1
2014-Oct-21 16:33N 57°34' E 011°38'9 9.4
2014-Oct-21 15:33N 57°25' E 011°36'1313.0
2014-Oct-21 14:33N 57°12' E 011°39'1313.2
2014-Oct-21 13:33N 56°59' E 011°45'1313.3
2014-Oct-21 12:33N 56°47' E 011°53'137 9.1
2014-Oct-20 21:33N 54°30' E 011°34'1111.2
2014-Oct-20 20:32N 54°26' E 011°52'1010.7
2014-Oct-20 19:33N 54°28' E 012°10'6811.3
2014-Oct-20 13:33N 55°01' E 013°52'1111.3
2014-Oct-20 12:33N 55°07' E 014°08'1212.1
2014-Oct-20 11:33N 55°17' E 014°22'1212.0
2014-Oct-20 10:33N 55°26' E 014°35'1211.9
2014-Oct-20 09:33N 55°32' E 014°53'1211.6
2014-Oct-20 08:33N 55°38' E 015°11'1211.7
2014-Oct-20 07:29N 55°44' E 015°30'2311.9
2014-Oct-20 05:33N 55°56' E 016°05'1212.0
2014-Oct-20 04:33N 56°02' E 016°24'  
Track history (hours):
 
Tides and Currents Weather Stations Pressure Air Temp Water Temp Dewpoint Dewpoint Depression Visibility Wind Speed Wind Dir Waves Ship Positions

Apellis

Last reported at 2014-Oct-25 04:20 UTC. Time now 2014-Oct-25 23:41 UTC.
Position N 49°53' W 003°10'.

Length 178 m; draft 9.4 m.

Type: Cargo ship. MMSI: 353847000.

Date/timePositionNaut miles runAvg speedWind from/ knotsBaromVisibWave heightAir tempDewpointWater temp
2014-Oct-25 04:20N 49°53' W 003°10'1513.6
2014-Oct-25 03:15N 49°60' W 002°49'1215.1
2014-Oct-25 02:26N 50°03' W 002°31'8612.4
2014-Oct-24 19:28N 50°28' W 000°22'1611.5
2014-Oct-24 18:06N 50°32' E 000°02'1012.5
2014-Oct-24 17:19N 50°35' E 000°16'1013.1
2014-Oct-24 16:33N 50°38' E 000°32'1312.7
2014-Oct-24 15:34N 50°44' E 000°49'1512.0
2014-Oct-24 14:19N 50°53' E 001°07'910.7
2014-Oct-24 13:29N 50°59' E 001°18'9 9.3
2014-Oct-24 12:34N 51°05' E 001°29'9 9.1
2014-Oct-24 11:33N 51°10' E 001°40'1010.5
2014-Oct-24 10:34N 51°18' E 001°51'1312.9
2014-Oct-24 09:33N 51°29' E 002°02'9411.6
2014-Oct-24 01:25N 52°52' E 003°15'35611.8
2014-Oct-22 19:21N 57°38' E 009°27'1011.8
2014-Oct-22 18:32N 57°43' E 009°43'1511.7
2014-Oct-22 17:16N 57°48' E 010°09'812.1
2014-Oct-22 16:33N 57°48' E 010°25'1111.4
2014-Oct-22 15:33N 57°48' E 010°46'1212.4
2014-Oct-22 14:33N 57°42' E 011°06'1212.0
2014-Oct-22 13:33N 57°36' E 011°25'8 8.5
2014-Oct-22 12:33N 57°35' E 011°41'1 1.0
2014-Oct-22 11:33N 57°36' E 011°40'0 0.0
2014-Oct-22 10:24N 57°36' E 011°40'0 0.0
2014-Oct-22 09:33N 57°36' E 011°40'0 0.0
2014-Oct-22 08:30N 57°36' E 011°40'0 0.0
2014-Oct-22 07:30N 57°36' E 011°40'0 0.0
2014-Oct-22 06:30N 57°36' E 011°40'0 0.0
2014-Oct-22 05:33N 57°36' E 011°40'0 0.0
2014-Oct-22 04:33N 57°36' E 011°40'0 0.0
2014-Oct-22 03:33N 57°36' E 011°40'0 0.0
2014-Oct-22 02:33N 57°36' E 011°40'0 0.0
2014-Oct-22 01:33N 57°36' E 011°41'0 0.0
2014-Oct-22 00:30N 57°36' E 011°41'0 0.0
2014-Oct-21 23:33N 57°36' E 011°41'0 0.0
2014-Oct-21 22:33N 57°36' E 011°41'0 0.0
2014-Oct-21 21:33N 57°36' E 011°41'0 0.0
2014-Oct-21 20:33N 57°36' E 011°41'0 0.0
2014-Oct-21 19:33N 57°36' E 011°40'0 0.0
2014-Oct-21 18:33N 57°36' E 011°40'0 0.0
2014-Oct-21 17:33N 57°36' E 011°40'2 2.1
2014-Oct-21 16:33N 57°34' E 011°38'9 9.4
2014-Oct-21 15:33N 57°25' E 011°36'1313.0
2014-Oct-21 14:33N 57°12' E 011°39'1313.2
2014-Oct-21 13:33N 56°59' E 011°45'1313.3
2014-Oct-21 12:33N 56°47' E 011°53'137 9.1
2014-Oct-20 21:33N 54°30' E 011°34'1111.2
2014-Oct-20 20:32N 54°26' E 011°52'1010.7
2014-Oct-20 19:33N 54°28' E 012°10'6811.3
2014-Oct-20 13:33N 55°01' E 013°52'1111.3
2014-Oct-20 12:33N 55°07' E 014°08'1212.1
2014-Oct-20 11:33N 55°17' E 014°22'1212.0
2014-Oct-20 10:33N 55°26' E 014°35'1211.9
2014-Oct-20 09:33N 55°32' E 014°53'1211.6
2014-Oct-20 08:33N 55°38' E 015°11'1211.7
2014-Oct-20 07:29N 55°44' E 015°30'2311.9
2014-Oct-20 05:33N 55°56' E 016°05'1212.0
2014-Oct-20 04:33N 56°02' E 016°24'  

Dump ship's entire track history